createdAt,value
2022-11-14T00:00:50.093Z,4.47
2022-11-14T00:03:39.612Z,5.68
2022-11-14T00:06:28.899Z,5.55
2022-11-14T00:09:17.661Z,5.78
2022-11-14T00:12:06.808Z,4.50
2022-11-14T00:14:57.312Z,7.45
2022-11-14T00:17:46.390Z,6.32
2022-11-14T00:20:36.192Z,8.43
2022-11-14T00:23:25.209Z,6.18
2022-11-14T00:26:14.407Z,4.45
2022-11-14T00:29:03.787Z,6.45
2022-11-14T00:31:52.986Z,4.75
2022-11-14T00:34:42.169Z,7.25
2022-11-14T00:37:33.340Z,5.65
2022-11-14T00:40:22.097Z,5.65
2022-11-14T00:43:11.220Z,6.18
2022-11-14T00:46:00.223Z,4.63
2022-11-14T00:48:49.165Z,5.95
2022-11-14T00:51:38.143Z,3.58
2022-11-14T00:54:28.206Z,4.57
2022-11-14T00:57:17.083Z,6.13
2022-11-14T01:00:07.799Z,5.40
2022-11-14T01:02:58.520Z,5.65
2022-11-14T01:05:49.298Z,5.22
2022-11-14T01:08:38.938Z,6.05
2022-11-14T01:11:27.720Z,4.90
2022-11-14T01:14:16.702Z,5.47
2022-11-14T01:17:05.885Z,5.53
2022-11-14T01:19:55.051Z,5.15
2022-11-14T01:22:44.394Z,4.32
2022-11-14T01:25:36.026Z,6.35
2022-11-14T01:28:25.107Z,5.57
2022-11-14T01:31:20.149Z,6.03
2022-11-14T01:34:09.777Z,5.97
2022-11-14T01:36:58.988Z,3.33
2022-11-14T01:39:47.965Z,3.97
2022-11-14T01:42:36.582Z,3.60
2022-11-14T01:45:50.050Z,5.15
2022-11-14T01:48:52.961Z,3.88
2022-11-14T01:51:59.008Z,4.53
2022-11-14T01:54:52.005Z,4.80
2022-11-14T01:57:44.609Z,5.18
2022-11-14T02:00:34.177Z,6.75
2022-11-14T02:03:23.546Z,6.90
2022-11-14T02:06:16.932Z,4.05
2022-11-14T02:09:08.807Z,6.32
2022-11-14T02:11:58.641Z,5.95
2022-11-14T02:14:50.475Z,5.13
2022-11-14T02:20:30.342Z,4.15
2022-11-14T02:23:31.341Z,5.45
2022-11-14T02:26:21.628Z,6.70
2022-11-14T02:29:12.414Z,6.13
2022-11-14T02:32:03.829Z,4.50
2022-11-14T02:34:54.236Z,4.35
2022-11-14T02:37:43.182Z,5.30
2022-11-14T02:40:32.425Z,5.75
2022-11-14T02:43:21.111Z,3.90
2022-11-14T02:46:09.800Z,3.83
2022-11-14T02:48:59.064Z,5.00
2022-11-14T02:51:48.559Z,3.95
2022-11-14T02:54:37.595Z,7.00
2022-11-14T02:57:27.113Z,4.78
2022-11-14T03:00:16.280Z,4.95
2022-11-14T03:03:04.796Z,3.25
2022-11-14T03:05:54.974Z,3.72
2022-11-14T03:08:43.667Z,4.07
2022-11-14T03:11:33.050Z,7.45
2022-11-14T03:14:22.036Z,4.72
2022-11-14T03:17:11.329Z,6.13
2022-11-14T03:20:00.655Z,3.85
2022-11-14T03:22:50.127Z,4.15
2022-11-14T03:25:39.445Z,3.05
2022-11-14T03:28:29.073Z,3.88
2022-11-14T03:31:18.733Z,3.67
2022-11-14T03:34:07.831Z,4.22
2022-11-14T03:36:56.531Z,3.25
2022-11-14T03:39:45.492Z,4.65
2022-11-14T03:42:37.690Z,3.28
2022-11-14T03:45:26.812Z,4.05
2022-11-14T03:48:16.416Z,4.20
2022-11-14T03:51:05.504Z,2.80
2022-11-14T03:53:54.554Z,3.35
2022-11-14T03:56:43.536Z,3.30
2022-11-14T03:59:32.525Z,3.25
2022-11-14T04:02:22.162Z,3.65
2022-11-14T04:05:11.944Z,4.55
2022-11-14T04:08:00.926Z,3.15
2022-11-14T04:10:50.675Z,3.53
2022-11-14T04:13:39.527Z,3.05
2022-11-14T04:16:29.259Z,3.88
2022-11-14T04:19:18.472Z,3.47
2022-11-14T04:22:07.857Z,2.83
2022-11-14T04:24:57.159Z,3.35
2022-11-14T04:27:46.646Z,3.75
2022-11-14T04:30:35.438Z,2.53
2022-11-14T04:33:24.193Z,4.13
2022-11-14T04:36:12.936Z,3.05
2022-11-14T04:39:02.551Z,4.45
2022-11-14T04:41:52.130Z,2.38
2022-11-14T04:44:40.827Z,3.95
2022-11-14T04:47:29.679Z,3.22
2022-11-14T04:50:19.260Z,2.53
2022-11-14T04:53:08.384Z,3.75
2022-11-14T04:55:57.142Z,5.00
2022-11-14T04:58:46.213Z,5.97
2022-11-14T05:01:35.572Z,6.82
2022-11-14T05:04:24.397Z,5.57
2022-11-14T05:07:13.297Z,5.03
2022-11-14T05:10:02.424Z,7.07
2022-11-14T05:12:51.423Z,4.50
2022-11-14T05:15:40.647Z,4.80
2022-11-14T05:18:29.992Z,6.70
2022-11-14T05:21:18.986Z,6.05
2022-11-14T05:24:07.895Z,6.63
2022-11-14T05:26:57.055Z,8.57
2022-11-14T05:29:45.951Z,7.45
2022-11-14T05:32:34.805Z,9.48
2022-11-14T05:35:23.624Z,10.95
2022-11-14T05:38:12.756Z,8.55
2022-11-14T05:41:02.202Z,7.63
2022-11-14T05:43:51.383Z,8.00
2022-11-14T05:46:40.642Z,11.70
2022-11-14T05:49:29.799Z,10.43
2022-11-14T05:52:19.296Z,11.25
2022-11-14T05:55:09.262Z,10.35
2022-11-14T05:58:01.720Z,11.25
2022-11-14T06:00:54.097Z,8.75
2022-11-14T06:03:46.618Z,11.23
2022-11-14T06:06:35.490Z,8.83
2022-11-14T06:09:24.540Z,12.20
2022-11-14T06:12:13.502Z,9.02
2022-11-14T06:15:02.409Z,10.52
2022-11-14T06:17:53.789Z,10.10
2022-11-14T06:20:42.652Z,12.93
2022-11-14T06:23:31.880Z,10.35
2022-11-14T06:26:31.665Z,10.23
2022-11-14T06:29:20.651Z,11.60
2022-11-14T06:32:09.593Z,11.68
2022-11-14T06:34:59.484Z,8.95
2022-11-14T06:37:48.443Z,9.93
2022-11-14T06:40:37.502Z,9.15
2022-11-14T06:43:26.427Z,8.25
2022-11-14T06:46:17.692Z,8.20
2022-11-14T06:49:06.779Z,8.67
2022-11-14T06:51:56.010Z,10.18
2022-11-14T06:54:44.877Z,10.52
2022-11-14T06:57:33.848Z,10.40
2022-11-14T07:00:24.278Z,10.23
2022-11-14T07:03:12.998Z,9.75
2022-11-14T07:06:06.857Z,8.35
2022-11-14T07:08:57.479Z,10.57
2022-11-14T07:11:48.306Z,7.28
2022-11-14T07:14:37.258Z,10.30
2022-11-14T07:17:30.926Z,12.90
2022-11-14T07:20:20.444Z,11.45
2022-11-14T07:23:09.398Z,10.35
2022-11-14T07:25:58.341Z,9.70
2022-11-14T07:28:52.252Z,8.93
2022-11-14T07:31:44.232Z,11.02
2022-11-14T07:34:33.239Z,7.80
2022-11-14T07:37:22.178Z,9.65
2022-11-14T07:40:11.419Z,7.85
2022-11-14T07:43:04.964Z,10.27
2022-11-14T07:45:53.751Z,9.35
2022-11-14T07:48:43.228Z,12.23
2022-11-14T07:51:31.946Z,9.02
2022-11-14T07:54:20.967Z,10.45
2022-11-14T07:57:10.190Z,9.52
2022-11-14T07:59:59.095Z,8.90
2022-11-14T08:02:49.342Z,8.20
2022-11-14T08:05:38.584Z,9.75
2022-11-14T08:08:27.663Z,8.80
2022-11-14T08:11:31.815Z,10.98
2022-11-14T08:14:23.900Z,10.20
2022-11-14T08:17:12.902Z,13.23
2022-11-14T08:20:01.933Z,10.38
2022-11-14T08:22:50.774Z,10.25
2022-11-14T08:25:39.537Z,7.82
2022-11-14T08:28:28.639Z,10.13
2022-11-14T08:31:18.015Z,8.82
2022-11-14T08:34:07.287Z,8.00
2022-11-14T08:36:58.193Z,7.85
2022-11-14T08:39:47.162Z,7.45
2022-11-14T08:42:36.318Z,9.63
2022-11-14T08:45:25.151Z,8.77
2022-11-14T08:48:14.692Z,7.85
2022-11-14T08:51:08.502Z,7.68
2022-11-14T08:53:57.913Z,11.88
2022-11-14T08:56:46.885Z,9.30
2022-11-14T08:59:35.960Z,9.95
2022-11-14T09:02:25.400Z,7.57
2022-11-14T09:05:14.685Z,7.60
2022-11-14T09:08:04.558Z,8.27
2022-11-14T09:10:53.418Z,7.70
2022-11-14T09:13:42.312Z,6.85
2022-11-14T09:16:31.203Z,8.50
2022-11-14T09:19:22.455Z,8.55
2022-11-14T09:22:11.667Z,7.03
2022-11-14T09:25:00.610Z,8.60
2022-11-14T09:27:49.629Z,7.43
2022-11-14T09:30:41.605Z,6.95
2022-11-14T09:36:21.235Z,8.52
2022-11-14T09:39:10.031Z,8.63
2022-11-14T09:42:26.021Z,12.63
2022-11-14T09:45:16.599Z,8.15
2022-11-14T09:48:21.116Z,9.52
2022-11-14T09:51:19.232Z,7.55
2022-11-14T09:54:13.895Z,8.07
2022-11-14T09:57:03.378Z,9.02
2022-11-14T09:59:52.279Z,8.73
2022-11-14T10:02:46.201Z,6.32
2022-11-14T10:05:52.457Z,5.63
2022-11-14T10:09:07.461Z,6.57
2022-11-14T10:12:13.566Z,8.85
2022-11-14T10:15:12.452Z,7.88
2022-11-14T10:18:12.886Z,6.47
2022-11-14T10:21:23.155Z,6.53
2022-11-14T10:24:29.413Z,6.50
2022-11-14T10:27:25.681Z,5.63
2022-11-14T10:30:20.175Z,7.07
2022-11-14T10:33:16.462Z,5.85
2022-11-14T10:36:38.917Z,7.00
2022-11-14T10:39:41.087Z,7.75
2022-11-14T10:42:40.664Z,7.43
2022-11-14T10:45:43.200Z,8.13
2022-11-14T10:48:41.986Z,7.80
2022-11-14T10:51:46.694Z,10.38
2022-11-14T10:54:51.352Z,10.02
2022-11-14T10:57:41.667Z,10.48
2022-11-14T11:00:30.859Z,12.13
2022-11-14T11:03:20.100Z,14.18
2022-11-14T11:06:27.460Z,11.02
2022-11-14T11:09:45.153Z,11.85
2022-11-14T11:12:48.390Z,10.60
2022-11-14T11:15:42.872Z,10.65
2022-11-14T11:18:38.108Z,13.15
2022-11-14T11:21:26.936Z,12.88
2022-11-14T11:24:33.275Z,13.18
2022-11-14T11:27:26.880Z,13.15
2022-11-14T11:30:26.953Z,9.98
2022-11-14T11:33:18.952Z,11.35
2022-11-14T11:36:09.622Z,10.00
2022-11-14T11:38:58.622Z,9.90
2022-11-14T11:42:08.921Z,12.20
2022-11-14T11:45:02.694Z,12.00
2022-11-14T11:48:00.425Z,10.82
2022-11-14T11:50:50.130Z,12.43
2022-11-14T11:53:49.383Z,11.43
2022-11-14T11:56:40.378Z,12.38
2022-11-14T11:59:37.439Z,10.77
2022-11-14T12:02:28.369Z,12.30
2022-11-14T12:05:20.370Z,17.08
2022-11-14T12:11:16.617Z,8.93
2022-11-14T12:14:26.102Z,11.52
2022-11-14T12:17:46.527Z,11.45
2022-11-14T12:20:40.818Z,10.05
2022-11-14T12:23:58.626Z,8.65
2022-11-14T12:26:55.169Z,10.60
2022-11-14T12:30:05.198Z,13.10
2022-11-14T12:33:06.968Z,10.35
2022-11-14T12:36:04.401Z,12.18
2022-11-14T12:38:57.408Z,12.32
2022-11-14T12:41:46.172Z,10.60
2022-11-14T12:44:39.991Z,9.80
2022-11-14T12:47:32.022Z,11.90
2022-11-14T12:50:45.861Z,10.00
2022-11-14T12:53:41.929Z,10.77
2022-11-14T12:56:33.759Z,9.27
2022-11-14T12:59:51.373Z,9.30
2022-11-14T13:03:13.795Z,11.10
2022-11-14T13:06:19.754Z,12.65
2022-11-14T13:09:32.514Z,10.73
2022-11-14T13:12:49.866Z,9.65
2022-11-14T13:16:10.366Z,10.40
2022-11-14T13:19:21.996Z,11.85
2022-11-14T13:22:13.771Z,11.85
2022-11-14T13:28:21.716Z,10.52
2022-11-14T13:31:18.749Z,10.70
2022-11-14T13:34:38.937Z,8.98
2022-11-14T13:37:37.038Z,8.70
2022-11-14T13:40:49.138Z,9.18
2022-11-14T13:44:14.012Z,9.45
2022-11-14T13:47:22.320Z,8.18
2022-11-14T13:50:50.210Z,9.00
2022-11-14T13:53:41.709Z,8.38
2022-11-14T13:56:53.675Z,8.45
2022-11-14T14:02:55.537Z,8.60
2022-11-14T14:06:16.645Z,10.15
2022-11-14T14:09:25.398Z,9.17
2022-11-14T14:12:42.591Z,9.80
2022-11-14T14:16:08.632Z,11.65
2022-11-14T14:19:09.584Z,10.00
2022-11-14T14:22:45.222Z,10.73
2022-11-14T14:25:52.229Z,10.65
2022-11-14T14:29:01.432Z,10.88
2022-11-14T14:31:53.861Z,12.73
2022-11-14T14:34:45.604Z,16.20
2022-11-14T14:37:34.216Z,13.57
2022-11-14T14:40:32.821Z,11.07
2022-11-14T14:43:39.920Z,14.43
2022-11-14T14:46:35.865Z,12.82
2022-11-14T14:49:42.925Z,12.68
2022-11-14T14:52:37.507Z,13.27
2022-11-14T14:55:29.808Z,12.85
2022-11-14T14:58:28.657Z,12.10
2022-11-14T15:01:20.139Z,10.93
2022-11-14T15:04:10.421Z,11.85
2022-11-14T15:06:59.781Z,12.48
2022-11-14T15:10:00.183Z,13.70
2022-11-14T15:12:49.516Z,12.35
2022-11-14T15:15:40.493Z,10.63
2022-11-14T15:18:32.030Z,11.18
2022-11-14T15:21:28.728Z,8.75
2022-11-14T15:24:19.621Z,10.40
2022-11-14T15:27:15.935Z,10.45
2022-11-14T15:30:08.129Z,7.55
2022-11-14T15:33:02.563Z,11.07
2022-11-14T15:36:11.665Z,7.43
2022-11-14T15:39:02.881Z,6.85
2022-11-14T15:41:51.429Z,6.75
2022-11-14T15:44:41.236Z,6.30
2022-11-14T15:47:31.843Z,6.70
2022-11-14T15:50:20.609Z,6.13
2022-11-14T15:53:20.030Z,7.70
2022-11-14T15:56:11.997Z,6.20
2022-11-14T15:59:01.228Z,8.15
2022-11-14T16:01:54.756Z,7.03
2022-11-14T16:04:47.551Z,8.30
2022-11-14T16:07:36.973Z,8.77
2022-11-14T16:10:28.458Z,9.45
2022-11-14T16:13:17.793Z,10.90
2022-11-14T16:16:07.523Z,8.95
2022-11-14T16:18:56.505Z,10.63
2022-11-14T16:21:46.193Z,9.38
2022-11-14T16:24:35.353Z,9.25
2022-11-14T16:27:24.155Z,8.15
2022-11-14T16:30:18.179Z,9.38
2022-11-14T16:33:07.812Z,7.80
2022-11-14T16:35:57.106Z,8.23
2022-11-14T16:38:51.075Z,7.07
2022-11-14T16:41:41.842Z,8.10
2022-11-14T16:44:33.445Z,7.82
2022-11-14T16:47:26.118Z,7.10
2022-11-14T16:50:15.008Z,7.50
2022-11-14T16:53:03.559Z,7.05
2022-11-14T16:55:52.419Z,5.78
2022-11-14T16:58:43.555Z,6.32
2022-11-14T17:01:32.474Z,5.57
2022-11-14T17:04:22.045Z,4.63
2022-11-14T17:07:12.361Z,5.18
2022-11-14T17:10:02.047Z,4.55
2022-11-14T17:12:50.695Z,4.90
2022-11-14T17:15:39.867Z,6.05
2022-11-14T17:18:32.804Z,4.63
2022-11-14T17:21:27.849Z,6.05
2022-11-14T17:24:16.786Z,5.55
2022-11-14T17:27:05.532Z,5.88
2022-11-14T17:29:54.618Z,2.83
2022-11-14T17:32:43.504Z,4.28
2022-11-14T17:35:33.077Z,4.32
2022-11-14T17:38:22.081Z,3.47
2022-11-14T17:41:11.349Z,2.97
2022-11-14T17:44:03.359Z,3.65
2022-11-14T17:46:52.448Z,4.32
2022-11-14T17:49:41.101Z,2.95
2022-11-14T17:52:30.185Z,4.53
2022-11-14T17:55:19.284Z,3.70
2022-11-14T17:58:08.292Z,3.88
2022-11-14T18:00:57.439Z,3.47
2022-11-14T18:03:46.878Z,5.32
2022-11-14T18:06:36.203Z,4.55
2022-11-14T18:09:25.831Z,6.82
2022-11-14T18:12:15.083Z,4.28
2022-11-14T18:15:04.342Z,10.38
2022-11-14T18:17:53.093Z,6.22
2022-11-14T18:20:43.042Z,4.07
2022-11-14T18:23:32.158Z,4.97
2022-11-14T18:26:24.564Z,4.15
2022-11-14T18:29:13.778Z,4.50
2022-11-14T18:32:03.000Z,3.78
2022-11-14T18:34:52.125Z,3.42
2022-11-14T18:37:41.332Z,2.92
2022-11-14T18:40:30.149Z,3.42
2022-11-14T18:43:19.079Z,4.38
2022-11-14T18:46:16.624Z,5.72
2022-11-14T18:49:05.777Z,3.78
2022-11-14T18:51:56.412Z,4.10
2022-11-14T18:54:45.679Z,4.30
2022-11-14T18:57:35.437Z,5.50
2022-11-14T19:00:24.211Z,3.30
2022-11-14T19:03:13.161Z,2.08
2022-11-14T19:06:06.107Z,2.90
2022-11-14T19:09:27.543Z,2.50
2022-11-14T19:12:26.274Z,3.05
2022-11-14T19:15:15.441Z,3.95
2022-11-14T19:18:04.507Z,4.57
2022-11-14T19:21:04.931Z,3.92
2022-11-14T19:23:55.309Z,3.40
2022-11-14T19:26:44.913Z,3.67
2022-11-14T19:29:34.411Z,4.03
2022-11-14T19:32:23.319Z,2.60
2022-11-14T19:35:14.778Z,3.42
2022-11-14T19:38:07.799Z,4.25
2022-11-14T19:41:00.815Z,2.83
2022-11-14T19:43:52.300Z,3.50
2022-11-14T19:46:47.078Z,6.43
2022-11-14T19:49:36.282Z,3.42
2022-11-14T19:52:25.454Z,3.83
2022-11-14T19:55:14.962Z,2.55
2022-11-14T19:58:04.651Z,4.85
2022-11-14T20:00:53.718Z,4.45
2022-11-14T20:03:43.678Z,3.63
2022-11-14T20:06:36.966Z,3.38
2022-11-14T20:09:26.036Z,3.65
2022-11-14T20:12:15.060Z,4.13
2022-11-14T20:15:04.648Z,6.10
2022-11-14T20:17:53.339Z,3.20
2022-11-14T20:20:42.271Z,3.90
2022-11-14T20:23:31.832Z,2.50
2022-11-14T20:26:21.576Z,2.38
2022-11-14T20:29:10.173Z,3.65
2022-11-14T20:31:59.352Z,2.97
2022-11-14T20:34:48.326Z,2.38
2022-11-14T20:37:37.513Z,3.35
2022-11-14T20:40:26.445Z,3.25
2022-11-14T20:43:15.266Z,3.40
2022-11-14T20:46:23.639Z,1.65
2022-11-14T20:49:12.993Z,2.33
2022-11-14T20:52:03.296Z,2.53
2022-11-14T20:54:52.248Z,2.25
2022-11-14T20:57:42.344Z,3.40
2022-11-14T21:00:31.662Z,1.83
2022-11-14T21:03:20.895Z,4.20
2022-11-14T21:06:12.820Z,2.20
2022-11-14T21:09:01.945Z,2.97
2022-11-14T21:11:51.314Z,3.92
2022-11-14T21:14:39.828Z,2.97
2022-11-14T21:17:29.133Z,3.67
2022-11-14T21:20:18.852Z,2.92
2022-11-14T21:23:07.667Z,3.33
2022-11-14T21:26:04.338Z,2.53
2022-11-14T21:28:56.821Z,4.22
2022-11-14T21:31:47.562Z,2.67
2022-11-14T21:34:36.871Z,3.28
2022-11-14T21:37:25.849Z,2.88
2022-11-14T21:40:14.968Z,3.45
2022-11-14T21:43:04.534Z,3.25
2022-11-14T21:46:01.484Z,4.47
2022-11-14T21:48:51.445Z,3.30
2022-11-14T21:51:40.330Z,3.00
2022-11-14T21:54:29.296Z,4.22
2022-11-14T21:57:17.948Z,4.25
2022-11-14T22:00:08.339Z,5.38
2022-11-14T22:03:18.627Z,5.88
2022-11-14T22:06:08.622Z,3.80
2022-11-14T22:08:57.973Z,3.92
2022-11-14T22:11:47.431Z,2.83
2022-11-14T22:14:36.358Z,5.15
2022-11-14T22:17:25.399Z,3.72
2022-11-14T22:20:14.724Z,3.22
2022-11-14T22:23:04.209Z,3.60
2022-11-14T22:26:00.609Z,3.83
2022-11-14T22:28:50.139Z,3.75
2022-11-14T22:31:40.004Z,4.75
2022-11-14T22:34:28.976Z,4.50
2022-11-14T22:37:17.745Z,2.67
2022-11-14T22:40:07.605Z,4.45
2022-11-14T22:42:56.823Z,3.28
2022-11-14T22:45:46.331Z,3.38
2022-11-14T22:48:36.569Z,2.05
2022-11-14T22:51:27.953Z,4.50
2022-11-14T22:54:16.975Z,4.93
2022-11-14T22:57:05.992Z,2.05
2022-11-14T22:59:54.712Z,3.50
2022-11-14T23:02:44.111Z,2.42
2022-11-14T23:05:38.188Z,2.75
2022-11-14T23:08:26.884Z,3.45
2022-11-14T23:11:18.928Z,2.72
2022-11-14T23:14:08.272Z,2.78
2022-11-14T23:16:57.225Z,1.80
2022-11-14T23:19:46.570Z,2.92
2022-11-14T23:22:35.379Z,4.25
2022-11-14T23:25:25.509Z,3.47
2022-11-14T23:28:14.608Z,3.00
2022-11-14T23:31:04.279Z,2.97
2022-11-14T23:33:55.131Z,3.03
2022-11-14T23:36:44.182Z,4.15
2022-11-14T23:39:33.039Z,2.35
2022-11-14T23:42:22.237Z,3.72
2022-11-14T23:45:11.092Z,3.03
2022-11-14T23:48:00.229Z,1.75
2022-11-14T23:50:57.118Z,2.53
2022-11-14T23:53:46.524Z,3.92
2022-11-14T23:56:35.486Z,3.17
2022-11-14T23:59:24.596Z,3.75
